Tinaja, New Mexico
Current Conditions -  °F | °C
As of 12:53 PM on Saturday 25 Oct 2014 (Local Time) from KGUP Reporting Station
Clear Clear  
Wind Chill: 72°   Ceiling: Unl
Heat Index: 72°   Visibility: 10mi
Dew Point: 38°   Wind: 12mph
Humidity: 29%   Direction: 240°WSW
Pressure: 30.34"   Gusts: NA
Location:  35.1314°N, 108.496°W
Report Text: KGUP 251853Z AUTO 24010KT 10SM CLR 22/03 A3034 RMK AO2 SLP172 T02220033
Loading
Personal Weather Stations






























Interactive Weather Map
Tropical Storm Tracking
New forecast layout! Learn more

10-Day Weather Forecast

Advertisements
Track Severe Weather on mobile